createdAt,value
2022-12-12T00:01:17.569Z,9.13
2022-12-12T00:03:45.317Z,8.15
2022-12-12T00:06:12.580Z,8.52
2022-12-12T00:08:39.729Z,8.07
2022-12-12T00:11:07.064Z,8.43
2022-12-12T00:13:34.178Z,8.60
2022-12-12T00:16:01.329Z,9.27
2022-12-12T00:18:28.546Z,7.40
2022-12-12T00:20:56.755Z,8.48
2022-12-12T00:23:24.883Z,8.13
2022-12-12T00:25:59.137Z,9.73
2022-12-12T00:28:26.900Z,8.57
2022-12-12T00:30:54.125Z,7.65
2022-12-12T00:33:21.343Z,8.57
2022-12-12T00:35:52.198Z,9.23
2022-12-12T00:38:20.633Z,9.30
2022-12-12T00:40:48.066Z,8.57
2022-12-12T00:43:15.255Z,7.97
2022-12-12T00:45:42.499Z,8.55
2022-12-12T00:48:10.399Z,8.85
2022-12-12T00:50:37.617Z,8.00
2022-12-12T00:53:04.793Z,7.88
2022-12-12T00:55:32.011Z,8.88
2022-12-12T00:57:59.144Z,9.18
2022-12-12T01:00:26.707Z,8.02
2022-12-12T01:02:56.618Z,8.27
2022-12-12T01:05:23.836Z,8.68
2022-12-12T01:07:51.024Z,8.52
2022-12-12T01:10:18.351Z,10.50
2022-12-12T01:12:45.542Z,10.65
2022-12-12T01:15:13.065Z,11.30
2022-12-12T01:17:40.433Z,9.90
2022-12-12T01:20:08.979Z,10.95
2022-12-12T01:22:37.218Z,11.60
2022-12-12T01:25:04.493Z,9.05
2022-12-12T01:27:32.163Z,9.02
2022-12-12T01:30:01.811Z,9.65
2022-12-12T01:32:29.716Z,8.35
2022-12-12T01:34:56.848Z,12.30
2022-12-12T01:37:24.257Z,13.93
2022-12-12T01:39:51.473Z,10.45
2022-12-12T01:42:19.367Z,11.55
2022-12-12T01:44:48.341Z,11.38
2022-12-12T01:47:17.296Z,10.77
2022-12-12T01:49:47.752Z,12.32
2022-12-12T01:52:18.557Z,12.23
2022-12-12T01:54:48.029Z,11.85
2022-12-12T01:57:17.329Z,12.32
2022-12-12T01:59:45.600Z,13.02
2022-12-12T02:02:13.004Z,11.68
2022-12-12T02:04:41.130Z,11.25
2022-12-12T02:07:08.627Z,11.77
2022-12-12T02:09:36.694Z,11.65
2022-12-12T02:12:04.315Z,11.35
2022-12-12T02:14:33.933Z,13.05
2022-12-12T02:17:10.330Z,10.35
2022-12-12T02:19:56.686Z,12.57
2022-12-12T02:22:23.777Z,10.70
2022-12-12T02:25:09.974Z,11.43
2022-12-12T02:27:40.239Z,10.18
2022-12-12T02:30:10.166Z,13.50
2022-12-12T02:32:40.080Z,11.02
2022-12-12T02:35:12.785Z,11.02
2022-12-12T02:37:42.342Z,11.77
2022-12-12T02:40:15.368Z,12.63
2022-12-12T02:42:44.437Z,11.88
2022-12-12T02:45:23.663Z,12.05
2022-12-12T02:48:14.147Z,10.68
2022-12-12T02:50:42.816Z,11.30
2022-12-12T02:53:10.256Z,12.02
2022-12-12T02:55:37.758Z,12.48
2022-12-12T02:58:05.848Z,11.50
2022-12-12T03:00:36.461Z,11.48
2022-12-12T03:03:25.107Z,11.85
2022-12-12T03:06:29.388Z,12.73
2022-12-12T03:09:17.095Z,13.75
2022-12-12T03:11:47.002Z,11.35
2022-12-12T03:14:14.099Z,12.43
2022-12-12T03:16:59.747Z,12.85
2022-12-12T03:19:29.415Z,11.45
2022-12-12T03:22:12.553Z,13.82
2022-12-12T03:24:46.829Z,14.35
2022-12-12T03:27:21.350Z,12.35
2022-12-12T03:29:56.896Z,12.45
2022-12-12T03:32:26.335Z,13.50
2022-12-12T03:34:57.421Z,12.63
2022-12-12T03:37:30.836Z,13.73
2022-12-12T03:40:04.178Z,16.60
2022-12-12T03:42:50.736Z,15.50
2022-12-12T03:45:33.147Z,15.38
2022-12-12T03:48:20.652Z,14.82
2022-12-12T03:50:53.251Z,16.02
2022-12-12T03:53:28.000Z,14.05
2022-12-12T03:56:01.801Z,12.00
2022-12-12T03:58:35.692Z,14.65
2022-12-12T04:01:04.646Z,12.93
2022-12-12T04:03:54.460Z,17.67
2022-12-12T04:06:42.322Z,17.63
2022-12-12T04:09:31.713Z,16.08
2022-12-12T04:12:40.349Z,17.35
2022-12-12T04:15:13.543Z,17.30
2022-12-12T04:17:43.450Z,16.88
2022-12-12T04:20:34.429Z,14.60
2022-12-12T04:23:15.208Z,15.85
2022-12-12T04:26:02.355Z,18.23
2022-12-12T04:28:29.869Z,17.60
2022-12-12T04:30:58.655Z,18.90
2022-12-12T04:33:27.457Z,18.38
2022-12-12T04:35:56.267Z,21.10
2022-12-12T04:38:24.847Z,16.38
2022-12-12T04:40:54.293Z,14.55
2022-12-12T04:43:21.379Z,13.13
2022-12-12T04:45:51.006Z,15.45
2022-12-12T04:48:27.994Z,16.15
2022-12-12T04:50:55.646Z,17.83
2022-12-12T04:53:27.675Z,17.38
2022-12-12T04:55:57.160Z,17.88
2022-12-12T04:58:24.480Z,17.90
2022-12-12T05:01:00.641Z,16.65
2022-12-12T05:03:46.211Z,16.83
2022-12-12T05:06:15.204Z,17.10
2022-12-12T05:08:44.592Z,17.95
2022-12-12T05:11:12.176Z,18.30
2022-12-12T05:13:40.575Z,16.05
2022-12-12T05:16:13.811Z,19.17
2022-12-12T05:18:41.039Z,16.35
2022-12-12T05:21:08.134Z,20.20
2022-12-12T05:23:35.241Z,18.80
2022-12-12T05:26:17.283Z,20.35
2022-12-12T05:28:44.420Z,18.30
2022-12-12T05:31:11.615Z,21.67
2022-12-12T05:33:38.846Z,20.75
2022-12-12T05:36:06.079Z,20.73
2022-12-12T05:38:33.264Z,20.15
2022-12-12T05:41:00.429Z,19.52
2022-12-12T05:43:27.777Z,19.92
2022-12-12T05:45:54.920Z,21.13
2022-12-12T05:48:24.537Z,18.35
2022-12-12T05:50:52.454Z,19.42
2022-12-12T05:53:19.817Z,20.15
2022-12-12T05:55:47.098Z,22.55
2022-12-12T05:58:14.254Z,24.23
2022-12-12T06:00:41.355Z,23.80
2022-12-12T06:03:08.516Z,23.17
2022-12-12T06:05:35.660Z,21.05
2022-12-12T06:08:02.818Z,19.77
2022-12-12T06:10:30.539Z,19.55
2022-12-12T06:12:57.651Z,22.55
2022-12-12T06:15:24.845Z,18.60
2022-12-12T06:17:52.144Z,17.80
2022-12-12T06:20:19.901Z,22.73
2022-12-12T06:22:53.415Z,21.13
2022-12-12T06:25:21.345Z,17.52
2022-12-12T06:27:48.468Z,19.45
2022-12-12T06:30:15.780Z,20.55
2022-12-12T06:32:42.966Z,19.73
2022-12-12T06:35:11.408Z,18.40
2022-12-12T06:37:39.972Z,21.33
2022-12-12T06:40:07.517Z,21.90
2022-12-12T06:42:34.635Z,23.55
2022-12-12T06:45:01.766Z,21.55
2022-12-12T06:47:28.958Z,23.20
2022-12-12T06:49:56.069Z,23.92
2022-12-12T06:52:23.307Z,22.48
2022-12-12T06:54:50.681Z,27.05
2022-12-12T06:57:17.804Z,25.65
2022-12-12T06:59:45.010Z,21.27
2022-12-12T07:02:12.863Z,21.40
2022-12-12T07:04:40.046Z,21.55
2022-12-12T07:07:07.164Z,16.92
2022-12-12T07:09:34.370Z,24.55
2022-12-12T07:12:01.472Z,21.05
2022-12-12T07:14:28.595Z,20.65
2022-12-12T07:16:55.798Z,21.45
2022-12-12T07:19:23.048Z,21.10
2022-12-12T07:21:50.202Z,21.27
2022-12-12T07:24:17.400Z,19.70
2022-12-12T07:26:44.553Z,24.30
2022-12-12T07:29:12.192Z,24.67
2022-12-12T07:31:39.388Z,21.60
2022-12-12T07:34:06.514Z,24.70
2022-12-12T07:36:33.709Z,24.55
2022-12-12T07:39:00.949Z,25.80
2022-12-12T07:41:28.088Z,23.65
2022-12-12T07:43:55.225Z,24.25
2022-12-12T07:46:23.933Z,26.50
2022-12-12T07:48:51.799Z,29.85
2022-12-12T07:51:19.518Z,33.45
2022-12-12T07:53:46.902Z,28.58
2022-12-12T07:56:15.666Z,29.00
2022-12-12T07:58:42.937Z,30.88
2022-12-12T08:01:14.613Z,28.02
2022-12-12T08:03:42.309Z,30.38
2022-12-12T08:06:09.456Z,26.23
2022-12-12T08:08:36.772Z,26.85
2022-12-12T08:11:07.817Z,26.33
2022-12-12T08:13:38.797Z,26.80
2022-12-12T08:16:07.228Z,32.25
2022-12-12T08:18:34.463Z,26.95
2022-12-12T08:21:01.685Z,27.27
2022-12-12T08:23:28.924Z,24.55
2022-12-12T08:25:56.023Z,30.10
2022-12-12T08:28:23.191Z,29.02
2022-12-12T08:30:50.979Z,31.40
2022-12-12T08:33:18.819Z,30.23
2022-12-12T08:35:46.003Z,28.92
2022-12-12T08:38:13.396Z,30.27
2022-12-12T08:40:41.530Z,36.35
2022-12-12T08:43:09.703Z,33.28
2022-12-12T08:45:38.424Z,34.53
2022-12-12T08:48:06.593Z,35.95
2022-12-12T08:50:34.176Z,30.90
2022-12-12T08:53:01.276Z,31.88
2022-12-12T08:55:28.670Z,32.47
2022-12-12T08:57:55.862Z,31.05
2022-12-12T09:00:22.996Z,31.02
2022-12-12T09:02:50.405Z,31.73
2022-12-12T09:05:17.797Z,37.10
2022-12-12T09:07:44.893Z,34.22
2022-12-12T09:10:12.016Z,31.55
2022-12-12T09:12:41.801Z,35.70
2022-12-12T09:15:09.795Z,35.83
2022-12-12T09:17:36.952Z,36.38
2022-12-12T09:20:04.264Z,40.17
2022-12-12T09:22:31.376Z,39.42
2022-12-12T09:24:58.475Z,43.80
2022-12-12T09:27:25.647Z,44.40
2022-12-12T09:29:52.793Z,45.55
2022-12-12T09:32:24.372Z,45.25
2022-12-12T09:34:52.141Z,39.83
2022-12-12T09:37:19.599Z,40.35
2022-12-12T09:39:46.714Z,40.63
2022-12-12T09:42:22.221Z,35.03
2022-12-12T09:44:50.289Z,35.45
2022-12-12T09:47:20.153Z,35.35
2022-12-12T09:49:51.564Z,32.47
2022-12-12T09:54:45.819Z,34.08
2022-12-12T09:57:24.850Z,37.10
2022-12-12T10:00:03.092Z,32.05
2022-12-12T10:02:50.517Z,32.17
2022-12-12T10:05:24.556Z,33.03
2022-12-12T10:08:12.056Z,35.33
2022-12-12T10:10:40.614Z,28.52
2022-12-12T10:13:14.737Z,35.25
2022-12-12T10:15:43.859Z,37.88
2022-12-12T10:18:15.087Z,40.60
2022-12-12T10:20:46.325Z,40.47
2022-12-12T10:23:19.374Z,39.75
2022-12-12T10:26:00.217Z,38.90
2022-12-12T10:28:28.275Z,36.75
2022-12-12T10:31:07.939Z,42.08
2022-12-12T10:33:41.329Z,34.33
2022-12-12T10:36:20.507Z,35.45
2022-12-12T10:39:09.458Z,27.92
2022-12-12T10:41:42.342Z,30.50
2022-12-12T10:44:18.309Z,28.55
2022-12-12T10:46:49.492Z,33.22
2022-12-12T10:49:18.245Z,34.35
2022-12-12T10:51:48.161Z,32.10
2022-12-12T10:54:19.867Z,32.40
2022-12-12T10:57:07.196Z,32.60
2022-12-12T10:59:48.303Z,34.50
2022-12-12T11:02:21.724Z,38.95
2022-12-12T11:04:49.053Z,35.67
2022-12-12T11:07:20.574Z,33.70
2022-12-12T11:09:47.792Z,32.80
2022-12-12T11:12:17.171Z,29.02
2022-12-12T11:14:51.374Z,28.90
2022-12-12T11:17:29.094Z,24.08
2022-12-12T11:19:57.832Z,29.52
2022-12-12T11:22:25.444Z,28.35
2022-12-12T11:24:52.849Z,31.75
2022-12-12T11:27:25.994Z,34.67
2022-12-12T11:29:54.834Z,33.75
2022-12-12T11:32:26.166Z,31.50
2022-12-12T11:37:22.078Z,32.75
2022-12-12T11:39:52.894Z,27.30
2022-12-12T11:42:21.616Z,26.77
2022-12-12T11:44:57.464Z,26.65
2022-12-12T11:47:27.649Z,24.13
2022-12-12T11:49:59.223Z,28.83
2022-12-12T11:52:33.478Z,18.98
2022-12-12T11:55:01.448Z,23.70
2022-12-12T11:57:47.018Z,28.77
2022-12-12T12:00:21.107Z,25.48
2022-12-12T12:02:51.023Z,27.02
2022-12-12T12:05:20.994Z,28.10
2022-12-12T12:07:57.113Z,25.38
2022-12-12T12:10:42.676Z,27.80
2022-12-12T12:13:22.060Z,28.38
2022-12-12T12:15:57.812Z,26.60
2022-12-12T12:18:28.017Z,28.85
2022-12-12T12:21:11.309Z,28.52
2022-12-12T12:23:57.362Z,24.15
2022-12-12T12:26:36.791Z,24.30
2022-12-12T12:29:09.836Z,19.45
2022-12-12T12:31:40.578Z,25.95
2022-12-12T12:34:28.248Z,24.38
2022-12-12T12:36:58.333Z,24.77
2022-12-12T12:39:40.487Z,27.90
2022-12-12T12:42:10.404Z,28.67
2022-12-12T12:44:37.816Z,24.27
2022-12-12T12:47:14.043Z,20.80
2022-12-12T12:50:07.423Z,27.08
2022-12-12T12:52:41.645Z,22.38
2022-12-12T12:55:14.033Z,23.85
2022-12-12T12:57:43.333Z,25.60
2022-12-12T13:00:20.944Z,26.48
2022-12-12T13:03:06.452Z,27.02
2022-12-12T13:05:39.892Z,25.67
2022-12-12T13:08:13.369Z,24.77
2022-12-12T13:10:41.771Z,26.13
2022-12-12T13:13:18.325Z,28.65
2022-12-12T13:15:52.340Z,27.35
2022-12-12T13:18:19.558Z,29.50
2022-12-12T13:20:50.750Z,21.60
2022-12-12T13:23:36.968Z,25.45
2022-12-12T13:26:04.046Z,28.95
2022-12-12T13:28:37.424Z,29.40
2022-12-12T13:31:13.304Z,26.65
2022-12-12T13:33:46.664Z,25.70
2022-12-12T13:36:16.927Z,26.75
2022-12-12T13:38:48.925Z,27.23
2022-12-12T13:41:16.422Z,26.38
2022-12-12T13:43:45.144Z,23.38
2022-12-12T13:46:27.498Z,24.88
2022-12-12T13:49:07.149Z,28.48
2022-12-12T13:51:41.415Z,26.45
2022-12-12T13:54:13.652Z,26.90
2022-12-12T13:56:42.806Z,26.65
2022-12-12T13:59:27.870Z,26.60
2022-12-12T14:02:24.754Z,30.42
2022-12-12T14:05:09.983Z,28.25
2022-12-12T14:07:38.098Z,27.77
2022-12-12T14:10:19.389Z,29.55
2022-12-12T14:12:46.650Z,31.63
2022-12-12T14:15:40.238Z,23.40
2022-12-12T14:18:07.433Z,30.23
2022-12-12T14:20:36.369Z,28.13
2022-12-12T14:23:03.466Z,30.02
2022-12-12T14:25:34.307Z,28.88
2022-12-12T14:28:15.897Z,30.65
2022-12-12T14:30:56.188Z,27.58
2022-12-12T14:33:39.355Z,30.30
2022-12-12T14:36:26.834Z,30.40
2022-12-12T14:39:14.449Z,28.10
2022-12-12T14:41:42.102Z,30.35
2022-12-12T14:44:36.925Z,29.25
2022-12-12T14:47:09.274Z,26.45
2022-12-12T14:49:36.463Z,23.90
2022-12-12T14:52:03.860Z,29.65
2022-12-12T14:54:31.535Z,23.60
2022-12-12T14:56:59.222Z,25.98
2022-12-12T14:59:29.439Z,26.30
2022-12-12T15:02:07.761Z,29.83
2022-12-12T15:04:38.463Z,26.20
2022-12-12T15:07:06.673Z,29.25
2022-12-12T15:09:38.833Z,31.88
2022-12-12T15:12:08.956Z,27.55
2022-12-12T15:14:36.572Z,27.55
2022-12-12T15:17:06.136Z,27.98
2022-12-12T15:19:44.621Z,28.30
2022-12-12T15:22:29.657Z,28.27
2022-12-12T15:24:58.054Z,30.17
2022-12-12T15:27:30.404Z,30.88
2022-12-12T15:29:58.636Z,31.00
2022-12-12T15:32:26.662Z,25.90
2022-12-12T15:35:01.606Z,25.95
2022-12-12T15:37:29.759Z,27.88
2022-12-12T15:39:58.092Z,23.20
2022-12-12T15:42:25.517Z,27.65
2022-12-12T15:44:52.773Z,28.42
2022-12-12T15:47:20.739Z,28.73
2022-12-12T15:49:47.935Z,24.83
2022-12-12T15:52:28.132Z,22.85
2022-12-12T15:54:56.788Z,19.02
2022-12-12T15:57:28.471Z,21.02
2022-12-12T16:00:00.152Z,22.98
2022-12-12T16:02:31.608Z,21.75
2022-12-12T16:07:25.950Z,24.10
2022-12-12T16:10:00.298Z,21.02
2022-12-12T16:12:46.659Z,27.35
2022-12-12T16:15:20.631Z,29.35
2022-12-12T16:18:01.518Z,30.20
2022-12-12T16:20:30.592Z,34.92
2022-12-12T16:23:08.840Z,33.00
2022-12-12T16:25:36.772Z,34.60
2022-12-12T16:28:06.735Z,37.67
2022-12-12T16:30:34.125Z,43.58
2022-12-12T16:33:11.444Z,50.58
2022-12-12T16:35:38.630Z,43.78
2022-12-12T16:38:15.805Z,35.22
2022-12-12T16:40:46.827Z,34.53
2022-12-12T16:43:14.962Z,31.83
2022-12-12T16:45:42.652Z,36.45
2022-12-12T16:48:16.962Z,37.85
2022-12-12T16:50:44.477Z,54.60
2022-12-12T16:53:11.616Z,59.17
2022-12-12T16:55:41.173Z,66.95
2022-12-12T16:58:08.424Z,72.72
2022-12-12T17:00:35.681Z,73.63
2022-12-12T17:03:03.105Z,71.93
2022-12-12T17:05:30.519Z,65.53
2022-12-12T17:07:57.704Z,51.78
2022-12-12T17:10:25.922Z,47.38
2022-12-12T17:12:54.112Z,43.78
2022-12-12T17:15:27.032Z,47.10
2022-12-12T17:17:54.370Z,37.65
2022-12-12T17:20:21.551Z,34.92
2022-12-12T17:22:48.996Z,30.50
2022-12-12T17:25:16.117Z,36.33
2022-12-12T17:27:43.279Z,31.90
2022-12-12T17:30:10.786Z,29.48
2022-12-12T17:32:38.114Z,33.95
2022-12-12T17:35:06.385Z,30.80
2022-12-12T17:37:33.832Z,31.27
2022-12-12T17:40:01.252Z,33.70
2022-12-12T17:42:32.002Z,32.88
2022-12-12T17:44:59.421Z,33.38
2022-12-12T17:47:26.704Z,33.92
2022-12-12T17:49:53.832Z,38.17
2022-12-12T17:52:21.026Z,48.78
2022-12-12T17:55:54.445Z,57.28
2022-12-12T17:57:36.081Z,62.83
2022-12-12T18:00:03.525Z,55.85
2022-12-12T18:02:31.909Z,45.70
2022-12-12T18:04:59.114Z,45.25
2022-12-12T18:07:26.283Z,46.20
2022-12-12T18:09:53.436Z,50.00
2022-12-12T18:12:20.648Z,46.38
2022-12-12T18:14:47.758Z,45.67
2022-12-12T18:17:15.386Z,44.88
2022-12-12T18:19:42.621Z,42.08
2022-12-12T18:22:10.726Z,40.67
2022-12-12T18:24:38.201Z,40.58
2022-12-12T18:27:05.488Z,40.38
2022-12-12T18:29:32.658Z,39.22
2022-12-12T18:32:00.108Z,37.25
2022-12-12T18:34:27.414Z,35.80
2022-12-12T18:36:54.580Z,34.10
2022-12-12T18:39:24.988Z,30.60
2022-12-12T18:41:52.201Z,35.37
2022-12-12T18:44:19.592Z,38.05
2022-12-12T18:46:46.813Z,35.33
2022-12-12T18:49:16.039Z,39.25
2022-12-12T18:51:43.534Z,32.60
2022-12-12T18:54:15.452Z,38.03
2022-12-12T18:56:44.108Z,40.47
2022-12-12T18:59:11.308Z,36.67
2022-12-12T19:01:38.761Z,37.83
2022-12-12T19:04:11.646Z,45.83
2022-12-12T19:06:41.128Z,39.60
2022-12-12T19:09:09.740Z,39.60
2022-12-12T19:11:38.615Z,38.35
2022-12-12T19:14:06.742Z,42.90
2022-12-12T19:16:33.945Z,38.00
2022-12-12T19:19:01.815Z,40.20
2022-12-12T19:21:29.046Z,44.90
2022-12-12T19:23:56.445Z,41.72
2022-12-12T19:26:26.893Z,49.92
2022-12-12T19:28:57.961Z,47.07
2022-12-12T19:31:25.274Z,38.45
2022-12-12T19:33:52.720Z,43.42
2022-12-12T19:36:21.548Z,42.40
2022-12-12T19:38:49.074Z,35.03
2022-12-12T19:41:17.533Z,38.95
2022-12-12T19:43:45.562Z,39.80
2022-12-12T19:46:15.478Z,37.90
2022-12-12T19:48:43.283Z,37.67
2022-12-12T19:51:11.971Z,36.70
2022-12-12T19:53:40.560Z,38.45
2022-12-12T19:56:07.874Z,39.05
2022-12-12T19:58:38.723Z,41.38
2022-12-12T20:01:10.194Z,36.00
2022-12-12T20:03:37.639Z,41.72
2022-12-12T20:06:06.374Z,39.35
2022-12-12T20:08:34.114Z,35.45
2022-12-12T20:11:23.653Z,38.88
2022-12-12T20:13:52.148Z,36.17
2022-12-12T20:16:20.563Z,40.95
2022-12-12T20:18:49.627Z,38.72
2022-12-12T20:21:43.374Z,42.83
2022-12-12T20:24:05.589Z,40.72
2022-12-12T20:26:32.827Z,40.90
2022-12-12T20:29:00.600Z,40.28
2022-12-12T20:31:31.956Z,41.28
2022-12-12T20:36:27.828Z,38.47
2022-12-12T20:38:59.605Z,37.70
2022-12-12T20:41:27.912Z,40.85
2022-12-12T20:43:57.326Z,41.83
2022-12-12T20:46:26.850Z,41.13
2022-12-12T20:48:54.321Z,39.33
2022-12-12T20:51:53.408Z,45.58
2022-12-12T20:54:09.495Z,50.28
2022-12-12T20:56:40.318Z,46.78
2022-12-12T20:59:30.392Z,47.95
2022-12-12T21:01:57.712Z,46.50
2022-12-12T21:04:25.096Z,44.35
2022-12-12T21:06:52.848Z,50.40
2022-12-12T21:09:25.017Z,50.97
2022-12-12T21:11:57.886Z,51.55
2022-12-12T21:14:26.064Z,56.10
2022-12-12T21:16:53.397Z,58.55
2022-12-12T21:19:23.873Z,60.95
2022-12-12T21:21:51.189Z,45.17
2022-12-12T21:24:18.648Z,61.50
2022-12-12T21:26:46.008Z,59.35
2022-12-12T21:29:13.504Z,56.38
2022-12-12T21:31:48.265Z,57.42
2022-12-12T21:34:17.372Z,59.28
2022-12-12T21:36:44.603Z,56.85
2022-12-12T21:39:11.990Z,56.67
2022-12-12T21:41:41.575Z,56.67
2022-12-12T21:44:08.879Z,54.45
2022-12-12T21:46:36.167Z,56.22
2022-12-12T21:49:21.979Z,54.35
2022-12-12T21:51:49.125Z,58.83
2022-12-12T21:54:16.359Z,56.67
2022-12-12T21:56:44.216Z,55.42
2022-12-12T21:59:12.700Z,55.85
2022-12-12T22:01:40.458Z,57.17
2022-12-12T22:04:08.007Z,49.90
2022-12-12T22:06:35.968Z,58.22
2022-12-12T22:09:05.476Z,51.03
2022-12-12T22:11:42.249Z,53.67
2022-12-12T22:14:17.258Z,56.03
2022-12-12T22:16:44.856Z,51.47
2022-12-12T22:19:12.992Z,54.00
2022-12-12T22:21:40.181Z,54.50
2022-12-12T22:24:07.558Z,54.83
2022-12-12T22:26:38.942Z,51.53
2022-12-12T22:31:34.419Z,54.78
2022-12-12T22:34:03.064Z,54.00
2022-12-12T22:36:35.935Z,49.50
2022-12-12T22:39:03.421Z,52.85
2022-12-12T22:41:30.817Z,56.50
2022-12-12T22:43:59.178Z,50.88
2022-12-12T22:46:26.803Z,48.53
2022-12-12T22:48:55.108Z,47.72
2022-12-12T22:51:27.010Z,53.58
2022-12-12T22:53:56.140Z,51.95
2022-12-12T22:56:23.586Z,53.80
2022-12-12T22:58:50.781Z,51.45
2022-12-12T23:01:19.399Z,51.42
2022-12-12T23:03:46.993Z,50.90
2022-12-12T23:06:18.822Z,51.40
2022-12-12T23:08:50.054Z,49.15
2022-12-12T23:11:17.914Z,46.65
2022-12-12T23:13:45.533Z,47.58
2022-12-12T23:16:14.407Z,53.97
2022-12-12T23:18:41.782Z,50.75
2022-12-12T23:21:16.294Z,50.80
2022-12-12T23:23:44.418Z,50.90
2022-12-12T23:26:13.526Z,50.65
2022-12-12T23:28:41.419Z,53.22
2022-12-12T23:31:12.741Z,55.25
2022-12-12T23:36:11.052Z,46.97
2022-12-12T23:38:38.200Z,51.33
2022-12-12T23:41:06.253Z,51.40
2022-12-12T23:43:33.823Z,51.28
2022-12-12T23:46:08.296Z,53.80
2022-12-12T23:48:35.457Z,54.08
2022-12-12T23:51:02.663Z,50.05
2022-12-12T23:53:32.668Z,60.30
2022-12-12T23:56:03.315Z,66.57
2022-12-12T23:58:30.552Z,43.70
